Time;durP1;ratioP1;P1;durP2;ratioP2;P2;SDS_P1;SDS_P2;PMS_P1;PMS_P2;Temp;Humidity;BMP_temperature;BMP_pressure;BME280_temperature;BME280_humidity;BME280_pressure;Samples;Min_cycle;Max_cycle;Signal;HPM_P1;HPM_P2
2022/01/07 00:01:20;;;;;;;4.80;3.08;;;;;;;3.77;87.96;101368.97;5022993;28;20037;-82
2022/01/07 00:03:45;;;;;;;7.75;3.33;;;;;;;3.77;87.94;101364.66;5004730;28;20049;-82
2022/01/07 00:06:10;;;;;;;7.30;3.17;;;;;;;3.75;87.68;101363.81;5021555;28;20037;-82
2022/01/07 00:08:36;;;;;;;6.95;3.17;;;;;;;3.75;87.84;101365.53;4985875;28;20037;-82
2022/01/07 00:11:01;;;;;;;7.65;3.20;;;;;;;3.76;87.77;101354.28;5035340;28;20305;-83
2022/01/07 00:13:27;;;;;;;6.30;3.13;;;;;;;3.74;87.80;101359.47;5011496;28;20429;-83
2022/01/07 00:15:54;;;;;;;8.70;3.22;;;;;;;3.75;88.02;101344.81;5038630;28;20041;-83
2022/01/07 00:18:20;;;;;;;7.07;3.00;;;;;;;3.75;88.01;101342.22;5047177;28;20299;-82
2022/01/07 00:20:45;;;;;;;6.60;3.22;;;;;;;3.75;88.05;101353.44;5027642;28;20576;-83
2022/01/07 00:23:10;;;;;;;6.03;3.35;;;;;;;3.76;88.09;101349.97;5029400;28;20034;-82
2022/01/07 00:25:36;;;;;;;6.95;2.53;;;;;;;3.73;87.78;101352.59;5040978;28;20230;-82
2022/01/07 00:28:01;;;;;;;9.55;2.67;;;;;;;3.72;88.06;101337.91;4995652;28;20044;-82
2022/01/07 00:30:27;;;;;;;11.55;3.22;;;;;;;3.74;88.36;101332.72;5022979;28;20045;-82
2022/01/07 00:32:52;;;;;;;5.63;3.00;;;;;;;3.75;88.47;101329.28;5012852;28;20051;-82
2022/01/07 00:35:18;;;;;;;7.30;2.88;;;;;;;3.74;88.12;101332.72;5025473;28;20037;-83
2022/01/07 00:37:44;;;;;;;8.70;2.35;;;;;;;3.75;88.22;101327.53;5007840;28;20352;-82
2022/01/07 00:40:14;;;;;;;8.95;3.25;;;;;;;3.76;88.28;101328.38;4989229;28;20026;-83
2022/01/07 00:42:39;;;;;;;14.77;3.03;;;;;;;3.73;88.36;101324.09;5032571;28;20052;-83
2022/01/07 00:45:05;;;;;;;10.05;2.63;;;;;;;3.71;88.28;101312.88;5028113;28;20332;-82
2022/01/07 00:47:31;;;;;;;12.32;3.17;;;;;;;3.71;88.55;101307.69;5039317;28;20048;-82
2022/01/07 00:49:58;;;;;;;8.48;3.38;;;;;;;3.72;88.73;101303.38;4995135;28;20031;-82
2022/01/07 00:52:23;;;;;;;7.55;3.38;;;;;;;3.72;88.73;101306.81;5023457;28;20107;-82
2022/01/07 00:54:49;;;;;;;6.68;3.08;;;;;;;3.71;88.83;101294.75;4989641;28;20221;-82
2022/01/07 00:57:14;;;;;;;9.70;3.53;;;;;;;3.72;88.89;101299.03;5022783;28;20044;-82
2022/01/07 00:59:39;;;;;;;6.25;3.50;;;;;;;3.74;89.09;101293.84;5004573;28;20032;-82
2022/01/07 01:02:05;;;;;;;7.18;3.03;;;;;;;3.73;88.98;101285.22;5010873;28;20037;-82
2022/01/07 01:04:30;;;;;;;6.50;3.20;;;;;;;3.74;89.25;101288.66;5021914;28;20344;-82
2022/01/07 01:06:56;;;;;;;6.88;2.97;;;;;;;3.76;89.20;101297.28;5006378;28;20105;-83
2022/01/07 01:09:21;;;;;;;14.55;4.00;;;;;;;3.74;89.50;101289.53;5005443;28;20038;-82
2022/01/07 01:11:47;;;;;;;10.30;3.30;;;;;;;3.73;89.60;101289.53;5043452;28;20099;-82
2022/01/07 01:14:12;;;;;;;9.27;3.95;;;;;;;3.73;89.75;101282.63;5004449;28;20045;-82
2022/01/07 01:16:38;;;;;;;7.28;3.78;;;;;;;3.74;89.92;101283.50;5003347;28;20042;-83
2022/01/07 01:19:06;;;;;;;7.88;4.25;;;;;;;3.74;90.01;101273.97;5021285;28;20041;-83
2022/01/07 01:21:33;;;;;;;10.48;3.35;;;;;;;3.75;90.11;101269.69;5019696;28;20041;-83
2022/01/07 01:23:59;;;;;;;5.95;3.42;;;;;;;3.74;90.13;101263.63;5021507;28;20052;-82
2022/01/07 01:26:24;;;;;;;8.07;3.50;;;;;;;3.76;90.11;101263.63;5019196;28;20048;-82
2022/01/07 01:28:49;;;;;;;5.47;3.17;;;;;;;3.76;89.93;101268.78;5021646;28;20030;-82
2022/01/07 01:31:17;;;;;;;7.38;3.60;;;;;;;3.75;89.90;101265.34;5021840;28;20030;-83
2022/01/07 01:33:43;;;;;;;8.00;3.75;;;;;;;3.75;90.00;101254.13;5023039;28;20044;-83
2022/01/07 01:36:09;;;;;;;8.90;3.60;;;;;;;3.75;90.26;101254.13;5022337;28;20260;-83
2022/01/07 01:38:35;;;;;;;11.15;4.63;;;;;;;3.75;90.00;101244.63;5024353;28;20045;-83
2022/01/07 01:41:00;;;;;;;7.00;4.10;;;;;;;3.75;90.05;101242.03;5026396;28;20349;-82
2022/01/07 01:43:25;;;;;;;12.63;5.05;;;;;;;3.76;90.50;101240.28;5025960;28;20038;-82
2022/01/07 01:45:51;;;;;;;11.88;4.85;;;;;;;3.76;90.46;101235.97;5008608;28;20052;-82
2022/01/07 01:48:16;;;;;;;9.13;5.10;;;;;;;3.78;90.50;101231.66;5009927;28;20143;-83
2022/01/07 01:50:42;;;;;;;7.55;5.00;;;;;;;3.78;90.73;101235.97;5044556;28;20045;-82
2022/01/07 01:53:07;;;;;;;6.55;4.57;;;;;;;3.80;90.85;101227.34;5043711;28;20037;-83
2022/01/07 01:55:33;;;;;;;7.88;5.13;;;;;;;3.80;90.80;101221.25;5043945;28;20048;-82
2022/01/07 01:57:58;;;;;;;9.65;5.13;;;;;;;3.82;90.77;101224.69;5043758;28;20049;-83
2022/01/07 02:00:24;;;;;;;9.95;5.25;;;;;;;3.81;90.61;101226.44;5026038;28;20032;-83
2022/01/07 02:02:50;;;;;;;9.23;5.93;;;;;;;3.81;90.30;101220.41;5026616;28;20047;-82
2022/01/07 02:05:15;;;;;;;10.30;5.97;;;;;;;3.79;90.83;101216.97;5039049;28;20045;-83
2022/01/07 02:07:41;;;;;;;9.02;5.35;;;;;;;3.80;91.29;101222.16;5025497;28;20033;-82
2022/01/07 02:10:11;;;;;;;9.18;5.28;;;;;;;3.80;91.24;101210.91;5025533;28;20525;-82
2022/01/07 02:12:37;;;;;;;7.63;5.05;;;;;;;3.82;91.26;101211.75;5010509;28;20041;-82
2022/01/07 02:15:02;;;;;;;7.18;5.72;;;;;;;3.83;91.19;101216.06;5009425;28;20064;-82
2022/01/07 02:17:28;;;;;;;8.70;5.55;;;;;;;3.82;91.18;101206.56;5009723;28;20071;-82
2022/01/07 02:19:54;;;;;;;10.75;5.75;;;;;;;3.81;91.27;101195.34;5025571;28;20033;-82
2022/01/07 02:22:20;;;;;;;11.02;6.55;;;;;;;3.82;91.48;101201.38;5026085;28;20037;-82
2022/01/07 02:24:46;;;;;;;5.78;4.97;;;;;;;3.81;91.33;101204.88;5026219;28;20435;-83
2022/01/07 02:27:12;;;;;;;8.70;5.55;;;;;;;3.82;91.26;101203.97;5024601;28;20041;-82
2022/01/07 02:29:37;;;;;;;8.23;5.57;;;;;;;3.80;91.25;101193.66;5010197;28;20096;-83
2022/01/07 02:32:03;;;;;;;10.82;5.53;;;;;;;3.82;91.48;101193.63;5009269;28;20036;-82
2022/01/07 02:34:28;;;;;;;10.43;6.03;;;;;;;3.82;91.28;101191.03;4989983;28;20188;-82
2022/01/07 02:36:54;;;;;;;11.38;5.97;;;;;;;3.81;91.36;101189.31;5031998;28;20029;-81
2022/01/07 02:39:19;;;;;;;11.27;6.10;;;;;;;3.81;91.47;101181.53;4992810;28;21196;-82
2022/01/07 02:41:44;;;;;;;12.43;5.97;;;;;;;3.80;91.46;101169.44;5025811;28;20041;-82
2022/01/07 02:44:10;;;;;;;7.20;5.65;;;;;;;3.80;91.54;101179.81;5025580;28;20041;-82
2022/01/07 02:46:35;;;;;;;7.78;6.03;;;;;;;3.81;91.87;101171.19;5026183;28;20033;-82
2022/01/07 02:49:14;;;;;;;12.43;6.38;;;;;;;3.82;91.79;101166.00;5025594;28;20105;-82
2022/01/07 02:51:41;;;;;;;9.15;6.20;;;;;;;3.83;91.89;101169.44;5010442;28;20037;-82
2022/01/07 02:54:06;;;;;;;10.73;6.38;;;;;;;3.84;91.91;101159.06;5005280;28;20036;-82
2022/01/07 02:56:32;;;;;;;11.95;6.75;;;;;;;3.84;92.03;101168.56;5032996;28;20037;-82
2022/01/07 02:58:58;;;;;;;7.95;6.47;;;;;;;3.85;92.17;101165.09;5008952;28;20033;-82
2022/01/07 03:01:23;;;;;;;9.07;6.85;;;;;;;3.85;92.13;101162.50;5025010;28;20037;-82
2022/01/07 03:03:48;;;;;;;10.95;7.18;;;;;;;3.85;92.19;101157.31;5025338;28;20031;-83
2022/01/07 03:06:14;;;;;;;12.75;7.72;;;;;;;3.87;92.36;101146.94;5025709;28;20049;-82
2022/01/07 03:08:39;;;;;;;10.70;7.10;;;;;;;3.87;92.44;101155.56;5038807;28;20059;-82
2022/01/07 03:11:05;;;;;;;10.35;7.35;;;;;;;3.88;92.59;101154.72;5025332;28;20044;-82
2022/01/07 03:13:30;;;;;;;13.13;7.85;;;;;;;3.91;92.56;101146.03;5005313;28;20046;-83
2022/01/07 03:15:56;;;;;;;13.38;7.20;;;;;;;3.92;92.39;101147.78;5008506;28;20028;-82
2022/01/07 03:18:21;;;;;;;10.88;7.55;;;;;;;3.92;92.31;101150.38;5024199;28;20056;-83
2022/01/07 03:20:46;;;;;;;9.85;7.25;;;;;;;3.93;92.45;101145.19;5024788;28;20087;-82
2022/01/07 03:23:12;;;;;;;10.45;7.20;;;;;;;3.96;92.32;101149.47;5024113;28;20045;-82
2022/01/07 03:25:41;;;;;;;13.85;7.35;;;;;;;3.97;92.58;101141.69;5008948;28;20036;-82
2022/01/07 03:28:08;;;;;;;11.30;7.63;;;;;;;3.99;92.53;101136.50;5023981;28;20745;-82
2022/01/07 03:30:34;;;;;;;11.85;6.82;;;;;;;3.99;92.52;101131.31;5042229;28;20036;-82
2022/01/07 03:32:59;;;;;;;10.60;7.15;;;;;;;4.00;92.28;101128.72;5024256;28;20049;-82
2022/01/07 03:35:25;;;;;;;10.15;7.65;;;;;;;3.98;92.46;101135.63;5024724;28;20125;-82
2022/01/07 03:37:51;;;;;;;9.60;6.22;;;;;;;3.98;92.46;101140.81;5007456;28;20254;-82
2022/01/07 03:40:17;;;;;;;10.43;7.38;;;;;;;3.98;92.54;101125.28;5024275;28;20041;-82
2022/01/07 03:42:44;;;;;;;8.77;7.13;;;;;;;3.98;92.80;101120.09;5004118;28;20041;-82
2022/01/07 03:45:10;;;;;;;10.45;6.80;;;;;;;3.99;92.93;101124.38;5036568;28;20159;-81
2022/01/07 03:47:38;;;;;;;11.77;8.32;;;;;;;4.00;92.83;101115.75;5008455;28;20336;-83
2022/01/07 03:50:08;;;;;;;12.65;7.80;;;;;;;4.01;92.78;101107.09;5023279;28;20259;-80
2022/01/07 03:52:33;;;;;;;11.20;7.50;;;;;;;4.03;93.10;101100.16;5003758;28;20092;-81
2022/01/07 03:54:59;;;;;;;14.60;8.10;;;;;;;4.04;93.05;101090.66;5006510;28;20063;-80
2022/01/07 03:57:24;;;;;;;10.05;7.53;;;;;;;4.05;92.85;101084.59;5040388;28;20049;-80
2022/01/07 03:59:50;;;;;;;10.23;7.65;;;;;;;4.06;92.95;101083.72;5040102;28;20113;-80
2022/01/07 04:02:17;;;;;;;9.45;7.32;;;;;;;4.07;92.97;101072.47;5041572;28;20065;-84
2022/01/07 04:04:42;;;;;;;10.75;7.90;;;;;;;4.09;93.01;101085.41;4991996;28;20091;-84
2022/01/07 04:07:08;;;;;;;8.73;7.80;;;;;;;4.07;93.13;101072.47;5007640;28;20333;-84
2022/01/07 04:09:33;;;;;;;10.82;7.32;;;;;;;4.08;93.24;101074.19;5042494;28;20392;-84
2022/01/07 04:11:59;;;;;;;8.48;7.22;;;;;;;4.09;92.90;101080.22;5017924;28;20025;-85
2022/01/07 04:14:25;;;;;;;8.00;7.20;;;;;;;4.09;93.19;101077.63;5004808;28;20451;-84
2022/01/07 04:16:51;;;;;;;12.07;7.32;;;;;;;4.09;93.25;101081.09;4972149;28;20030;-84
2022/01/07 04:19:16;;;;;;;11.65;7.30;;;;;;;4.09;93.37;101072.47;5024226;28;20041;-85
2022/01/07 04:21:42;;;;;;;8.60;7.10;;;;;;;4.09;93.20;101070.72;5024076;28;20035;-84
2022/01/07 04:24:07;;;;;;;8.90;6.65;;;;;;;4.11;93.01;101079.38;5004104;28;20059;-84
2022/01/07 04:26:33;;;;;;;9.15;7.25;;;;;;;4.12;93.48;101059.47;5009400;28;20087;-84
2022/01/07 04:28:58;;;;;;;10.38;6.80;;;;;;;4.15;93.42;101072.41;5023960;28;20022;-84
2022/01/07 04:31:24;;;;;;;9.32;6.93;;;;;;;4.14;93.17;101075.88;5023714;28;20029;-84
2022/01/07 04:33:50;;;;;;;7.53;6.32;;;;;;;4.11;93.27;101066.41;5023711;28;20028;-85
2022/01/07 04:36:15;;;;;;;11.50;6.20;;;;;;;4.10;93.15;101069.00;5004994;28;20045;-84
2022/01/07 04:38:40;;;;;;;9.65;6.15;;;;;;;4.10;93.06;101064.66;5023271;28;20359;-84
2022/01/07 04:41:06;;;;;;;6.72;5.88;;;;;;;4.12;93.07;101067.25;5040637;28;20041;-84
2022/01/07 04:43:31;;;;;;;11.05;6.03;;;;;;;4.13;93.14;101062.06;5041240;28;20029;-84
2022/01/07 04:45:57;;;;;;;9.73;6.10;;;;;;;4.13;92.96;101058.59;5040710;28;20047;-84
2022/01/07 04:48:22;;;;;;;14.27;6.35;;;;;;;4.15;93.13;101062.03;5007181;28;20053;-85
2022/01/07 04:50:47;;;;;;;13.70;6.20;;;;;;;4.15;93.26;101062.91;4988036;28;20034;-84
2022/01/07 04:53:13;;;;;;;10.32;6.40;;;;;;;4.15;93.36;101055.13;5023272;28;20041;-84
2022/01/07 04:55:38;;;;;;;10.10;6.13;;;;;;;4.16;93.34;101048.19;5023936;28;20037;-84
2022/01/07 04:58:13;;;;;;;10.25;7.18;;;;;;;4.17;93.46;101052.50;5023272;28;20344;-84
2022/01/07 05:00:40;;;;;;;8.82;6.75;;;;;;;4.17;93.60;101053.38;5023790;28;20268;-85
2022/01/07 05:03:06;;;;;;;8.88;6.80;;;;;;;4.15;93.48;101055.13;5022991;28;20052;-85
2022/01/07 05:05:31;;;;;;;10.05;7.35;;;;;;;4.16;93.74;101054.22;5041580;28;20045;-84
2022/01/07 05:07:57;;;;;;;11.38;7.03;;;;;;;4.15;93.83;101052.53;5007125;28;20029;-84
2022/01/07 05:10:22;;;;;;;10.25;6.97;;;;;;;4.16;93.84;101056.81;5007708;28;20033;-84
2022/01/07 05:12:48;;;;;;;7.32;6.63;;;;;;;4.19;93.97;101045.56;5023320;28;20104;-84
2022/01/07 05:15:14;;;;;;;15.30;8.23;;;;;;;4.19;94.08;101050.75;5006983;28;20045;-85
2022/01/07 05:17:40;;;;;;;14.73;8.82;;;;;;;4.20;94.06;101062.81;5023807;28;20034;-84
2022/01/07 05:20:06;;;;;;;10.68;8.30;;;;;;;4.21;94.06;101057.63;5005465;28;20042;-85
2022/01/07 05:22:31;;;;;;;8.95;8.05;;;;;;;4.25;94.21;101057.59;5040879;28;20045;-85
2022/01/07 05:24:57;;;;;;;16.30;9.00;;;;;;;4.27;94.18;101059.28;5040907;28;20225;-84
2022/01/07 05:27:22;;;;;;;13.40;8.02;;;;;;;4.29;94.19;101051.50;5021969;28;20051;-84
2022/01/07 05:29:47;;;;;;;15.68;8.18;;;;;;;4.31;94.22;101066.19;5041100;28;20375;-84
2022/01/07 05:32:13;;;;;;;9.68;6.93;;;;;;;4.31;94.01;101071.38;4990583;28;20029;-84
2022/01/07 05:34:38;;;;;;;10.38;8.13;;;;;;;4.32;94.09;101072.22;5023795;28;20200;-84
2022/01/07 05:37:04;;;;;;;12.02;8.23;;;;;;;4.31;93.96;101060.13;5040117;28;20226;-84
2022/01/07 05:39:29;;;;;;;10.75;7.47;;;;;;;4.33;94.13;101054.06;5023317;28;20033;-84
2022/01/07 05:41:55;;;;;;;12.85;8.30;;;;;;;4.32;94.08;101054.91;5041300;28;20103;-84
2022/01/07 05:44:21;;;;;;;13.48;8.52;;;;;;;4.31;94.20;101044.56;5007878;28;20041;-84
2022/01/07 05:46:47;;;;;;;13.27;8.40;;;;;;;4.31;93.89;101050.63;5022510;28;20331;-85
2022/01/07 05:49:12;;;;;;;10.77;7.40;;;;;;;4.32;93.80;101052.34;5007297;28;20052;-85
2022/01/07 05:51:38;;;;;;;17.48;9.18;;;;;;;4.32;93.79;101061.84;5004289;28;20390;-84
2022/01/07 05:54:03;;;;;;;14.35;9.30;;;;;;;4.31;93.93;101058.41;5023202;28;20041;-84
2022/01/07 05:56:31;;;;;;;12.07;8.55;;;;;;;4.32;93.99;101061.84;5040352;28;20090;-84
2022/01/07 05:58:56;;;;;;;11.15;8.15;;;;;;;4.32;93.90;101048.88;5022914;28;20041;-84
2022/01/07 06:01:22;;;;;;;9.88;8.73;;;;;;;4.33;93.98;101060.97;5023423;28;20045;-85
2022/01/07 06:03:47;;;;;;;16.38;10.18;;;;;;;4.32;94.07;101054.06;5006444;28;20036;-84
2022/01/07 06:06:13;;;;;;;18.13;10.82;;;;;;;4.33;93.98;101059.25;5022438;28;20366;-85
2022/01/07 06:08:38;;;;;;;14.77;10.27;;;;;;;4.35;94.11;101056.66;5037073;28;20033;-84
2022/01/07 06:11:04;;;;;;;16.38;10.90;;;;;;;4.35;94.23;101064.41;5039823;28;20283;-84
2022/01/07 06:13:30;;;;;;;21.40;11.73;;;;;;;4.37;94.37;101065.25;5005456;28;20155;-84
2022/01/07 06:15:55;;;;;;;18.27;12.25;;;;;;;4.37;94.30;101063.50;4989876;28;20037;-84
2022/01/07 06:18:21;;;;;;;22.52;12.32;;;;;;;4.37;94.36;101079.06;5022803;28;20041;-84
2022/01/07 06:20:46;;;;;;;19.67;12.27;;;;;;;4.39;94.37;101073.88;5006453;28;20241;-84
2022/01/07 06:23:11;;;;;;;22.33;12.88;;;;;;;4.40;94.24;101072.97;5022193;28;20068;-84
2022/01/07 06:25:37;;;;;;;17.23;11.88;;;;;;;4.41;94.24;101069.53;5025330;28;20037;-84
2022/01/07 06:28:03;;;;;;;17.42;12.90;;;;;;;4.42;94.60;101061.72;5007053;28;20044;-84
2022/01/07 06:30:28;;;;;;;23.35;12.77;;;;;;;4.42;94.45;101056.53;5025745;28;20073;-84
2022/01/07 06:32:54;;;;;;;20.63;11.98;;;;;;;4.43;94.42;101060.84;5010488;28;20041;-85
2022/01/07 06:35:19;;;;;;;15.75;12.75;;;;;;;4.46;94.66;101051.31;5026687;28;20109;-84
2022/01/07 06:37:45;;;;;;;17.98;10.85;;;;;;;4.45;94.81;101050.44;5006366;28;20058;-84
2022/01/07 06:40:10;;;;;;;18.45;11.93;;;;;;;4.47;94.84;101058.22;4992023;28;20033;-84
2022/01/07 06:42:36;;;;;;;21.60;11.43;;;;;;;4.48;94.61;101063.41;5009403;28;20029;-84
2022/01/07 06:45:02;;;;;;;15.35;10.70;;;;;;;4.50;94.56;101060.78;5024439;28;20341;-84
2022/01/07 06:47:27;;;;;;;17.48;11.82;;;;;;;4.48;94.51;101059.94;5025411;28;20052;-84
2022/01/07 06:49:53;;;;;;;15.70;10.55;;;;;;;4.49;94.59;101062.50;5025793;28;20033;-84
2022/01/07 06:52:18;;;;;;;16.40;10.57;;;;;;;4.49;94.68;101070.28;5009366;28;20042;-83
2022/01/07 06:54:44;;;;;;;17.13;9.43;;;;;;;4.50;94.59;101068.56;5043528;28;20037;-84
2022/01/07 06:57:09;;;;;;;17.48;10.18;;;;;;;4.51;94.63;101065.06;5025302;28;20025;-84
2022/01/07 06:59:35;;;;;;;18.40;9.43;;;;;;;4.52;94.48;101072.00;5007961;28;20053;-85
2022/01/07 07:02:00;;;;;;;11.18;9.00;;;;;;;4.51;94.44;101071.16;5041970;28;20034;-84
2022/01/07 07:04:26;;;;;;;13.40;8.95;;;;;;;4.51;94.36;101068.56;5025503;28;20104;-83
2022/01/07 07:06:51;;;;;;;15.38;8.43;;;;;;;4.53;94.26;101065.91;5009115;28;20025;-84
2022/01/07 07:09:18;;;;;;;16.27;8.27;;;;;;;4.53;94.48;101069.38;5009418;28;20363;-84
2022/01/07 07:11:43;;;;;;;12.43;8.65;;;;;;;4.52;94.04;101069.41;5042183;28;20041;-84
2022/01/07 07:14:10;;;;;;;16.05;8.23;;;;;;;4.52;93.94;101072.00;5024780;28;20029;-85
2022/01/07 07:16:35;;;;;;;10.80;7.35;;;;;;;4.51;93.97;101059.88;5042792;28;20112;-84
2022/01/07 07:19:00;;;;;;;17.75;7.32;;;;;;;4.51;93.84;101067.66;5040242;28;20340;-84
2022/01/07 07:21:26;;;;;;;12.35;7.40;;;;;;;4.50;93.67;101056.44;5028745;28;20041;-84
2022/01/07 07:23:51;;;;;;;12.20;6.03;;;;;;;4.49;93.33;101061.66;5045381;28;20040;-84
2022/01/07 07:26:17;;;;;;;8.35;6.28;;;;;;;4.48;93.52;101062.53;5045173;28;20045;-84
2022/01/07 07:28:42;;;;;;;11.80;5.82;;;;;;;4.49;93.63;101053.88;5025289;28;20041;-84
2022/01/07 07:31:14;;;;;;;9.32;6.40;;;;;;;4.48;93.58;101049.56;5025359;28;20267;-84
2022/01/07 07:36:29;;;;;;;7.53;5.78;;;;;;;4.46;93.43;101041.81;5021184;28;20037;-84
2022/01/07 07:38:55;;;;;;;7.28;5.07;;;;;;;4.46;93.35;101031.44;5009159;28;20033;-84
2022/01/07 07:41:20;;;;;;;8.93;4.60;;;;;;;4.46;93.37;101035.75;5008329;28;20037;-84
2022/01/07 07:43:49;;;;;;;11.50;4.60;;;;;;;4.45;93.46;101036.63;5021317;28;20052;-84
2022/01/07 07:46:18;;;;;;;8.80;4.10;;;;;;;4.43;93.29;101044.44;5015017;28;20059;-84
2022/01/07 07:48:46;;;;;;;10.98;4.35;;;;;;;4.40;93.37;101045.34;5017438;28;20108;-84
2022/01/07 07:51:11;;;;;;;9.75;4.10;;;;;;;4.39;93.38;101058.31;5023707;28;20073;-84
2022/01/07 07:53:36;;;;;;;8.70;4.43;;;;;;;4.40;93.43;101054.81;5030876;28;20036;-84
2022/01/07 07:56:02;;;;;;;7.78;4.00;;;;;;;4.37;93.36;101055.75;5025985;28;20072;-85
2022/01/07 07:58:28;;;;;;;12.18;3.70;;;;;;;4.37;93.49;101054.88;5005371;28;20353;-84
2022/01/07 08:00:53;;;;;;;6.75;3.58;;;;;;;4.38;93.36;101062.66;5039972;28;20348;-84
2022/01/07 08:03:20;;;;;;;7.80;3.95;;;;;;;4.38;93.30;101059.19;5019145;28;20053;-84
2022/01/07 08:05:45;;;;;;;6.30;3.97;;;;;;;4.38;93.18;101062.66;5039581;28;20394;-84
2022/01/07 08:08:11;;;;;;;6.57;3.72;;;;;;;4.38;93.34;101070.44;5036675;28;20037;-84
2022/01/07 08:10:44;;;;;;;10.75;4.53;;;;;;;4.38;93.27;101075.63;5040312;28;20045;-84
2022/01/07 08:18:22;;;;;;;10.30;4.40;;;;;;;4.37;93.28;101066.09;5031039;28;20119;-84
2022/01/07 08:20:47;;;;;;;11.18;4.45;;;;;;;4.38;93.18;101072.16;5024599;28;20041;-84
2022/01/07 08:23:14;;;;;;;12.77;4.80;;;;;;;4.37;93.19;101067.84;5036697;28;20056;-84
2022/01/07 08:25:39;;;;;;;13.02;4.60;;;;;;;4.39;93.26;101068.69;5018134;28;20033;-84
2022/01/07 08:28:06;;;;;;;11.68;4.38;;;;;;;4.37;93.30;101063.50;4995645;28;20263;-84
2022/01/07 08:30:58;;;;;;;9.93;4.63;;;;;;;4.38;93.18;101070.44;5008716;28;20084;-84
2022/01/07 08:36:07;;;;;;;12.13;5.10;;;;;;;4.38;93.28;101069.56;5011562;28;20027;-85
2022/01/07 08:38:32;;;;;;;7.88;4.80;;;;;;;4.38;93.55;101062.66;5005324;28;20136;-84
2022/01/07 08:40:58;;;;;;;11.52;4.60;;;;;;;4.39;93.50;101064.34;5020462;28;20044;-84
2022/01/07 08:43:23;;;;;;;10.15;4.88;;;;;;;4.39;93.42;101068.69;5005316;28;20044;-85
2022/01/07 08:45:49;;;;;;;12.05;4.38;;;;;;;4.37;93.23;101071.28;5039604;28;20037;-85
2022/01/07 08:48:14;;;;;;;6.05;4.70;;;;;;;4.36;93.38;101061.78;5024887;28;20326;-85
2022/01/07 08:50:40;;;;;;;6.97;4.40;;;;;;;4.38;93.57;101062.66;5039022;28;20059;-84
2022/01/07 08:53:05;;;;;;;7.25;3.97;;;;;;;4.40;93.49;101067.78;5021700;28;20100;-84
2022/01/07 08:55:31;;;;;;;13.15;5.65;;;;;;;4.43;93.65;101067.78;5038291;28;20041;-85
2022/01/07 08:57:57;;;;;;;11.98;4.75;;;;;;;4.45;93.58;101076.38;5041214;28;20037;-84
2022/01/07 09:00:24;;;;;;;8.98;4.05;;;;;;;4.49;93.82;101072.03;5003332;28;20025;-84
2022/01/07 09:02:49;;;;;;;11.30;4.30;;;;;;;4.53;93.96;101071.09;5012445;28;20110;-85
2022/01/07 09:05:15;;;;;;;9.18;4.68;;;;;;;4.56;94.08;101069.31;5005577;28;20251;-85
2022/01/07 09:07:40;;;;;;;14.57;4.68;;;;;;;4.58;94.25;101065.00;5023547;28;20042;-85
2022/01/07 09:10:06;;;;;;;12.07;4.97;;;;;;;4.63;94.26;101066.69;5039233;28;20048;-84
2022/01/07 09:12:31;;;;;;;9.60;3.95;;;;;;;4.64;94.28;101058.88;5023670;28;20036;-84
2022/01/07 09:14:57;;;;;;;9.00;4.43;;;;;;;4.65;94.06;101060.59;5041954;28;20103;-85
2022/01/07 09:17:22;;;;;;;16.30;5.15;;;;;;;4.66;94.29;101059.72;5011670;28;20040;-85
2022/01/07 09:19:48;;;;;;;8.65;3.88;;;;;;;4.64;93.98;101058.00;5029661;28;20041;-85
2022/01/07 09:22:14;;;;;;;8.77;4.20;;;;;;;4.64;93.91;101060.59;5038964;28;20060;-85
2022/01/07 09:24:39;;;;;;;15.60;4.13;;;;;;;4.65;93.84;101060.59;5040598;28;20340;-85
2022/01/07 09:27:05;;;;;;;6.88;4.28;;;;;;;4.66;93.91;101064.03;5038374;28;20046;-85
2022/01/07 09:29:30;;;;;;;7.32;3.75;;;;;;;4.68;93.92;101059.69;5020999;28;20045;-84
2022/01/07 09:31:55;;;;;;;12.02;4.38;;;;;;;4.69;93.90;101062.25;5017405;28;20045;-84
2022/01/07 09:34:21;;;;;;;9.15;4.35;;;;;;;4.69;94.06;101062.25;5039833;28;20108;-85
2022/01/07 09:36:46;;;;;;;14.07;4.18;;;;;;;4.69;93.80;101072.63;5026176;28;20044;-85
2022/01/07 09:39:12;;;;;;;7.80;3.63;;;;;;;4.68;93.73;101057.09;5000637;28;20038;-85
2022/01/07 09:41:37;;;;;;;12.32;4.30;;;;;;;4.68;93.88;101051.91;5004063;28;20041;-85
2022/01/07 09:44:03;;;;;;;7.88;4.53;;;;;;;4.68;93.66;101060.56;5040235;28;20269;-86
2022/01/07 09:46:29;;;;;;;12.13;5.05;;;;;;;4.67;93.68;101061.41;5023291;28;20228;-85
2022/01/07 09:48:54;;;;;;;10.15;4.53;;;;;;;4.70;93.87;101047.56;5033735;28;20031;-86
2022/01/07 09:51:20;;;;;;;9.00;3.60;;;;;;;4.73;93.97;101058.75;5031223;28;20034;-84
2022/01/07 09:53:45;;;;;;;5.63;3.55;;;;;;;4.76;94.12;101069.09;5034070;28;20048;-85
2022/01/07 09:56:11;;;;;;;10.18;4.40;;;;;;;4.79;94.28;101076.84;5024922;28;20052;-84
2022/01/07 09:58:37;;;;;;;13.32;4.20;;;;;;;4.83;94.13;101066.44;5002104;28;20216;-85
2022/01/07 10:01:04;;;;;;;9.85;4.07;;;;;;;4.86;94.28;101071.56;5021631;28;20041;-85
2022/01/07 10:03:39;;;;;;;4.57;3.35;;;;;;;4.86;94.11;101074.16;5027816;28;20041;-85
2022/01/07 10:06:21;;;;;;;5.50;3.30;;;;;;;4.88;93.68;101072.41;5037138;28;20393;-85
2022/01/07 10:09:10;;;;;;;10.00;3.40;;;;;;;4.87;93.36;101065.50;5009611;28;20025;-84
2022/01/07 10:11:36;;;;;;;7.00;3.33;;;;;;;4.86;93.33;101064.66;5004976;28;20086;-85
2022/01/07 10:14:22;;;;;;;6.85;3.30;;;;;;;4.86;93.48;101067.25;5009254;28;20060;-85
2022/01/07 10:16:48;;;;;;;12.90;4.18;;;;;;;4.86;93.50;101064.66;5003471;28;20034;-84
2022/01/07 10:19:39;;;;;;;10.25;4.18;;;;;;;4.90;93.85;101066.31;5007759;28;20048;-85
2022/01/07 10:22:08;;;;;;;10.70;4.70;;;;;;;4.92;94.08;101066.31;5016363;28;20048;-85
2022/01/07 10:24:51;;;;;;;;;;;;;;;4.93;94.19;101058.50;5017258;28;20037;-84
2022/01/07 10:27:16;;;;;;;14.55;5.13;;;;;;;4.96;94.31;101057.59;5037048;28;19981;-84
2022/01/07 10:29:43;;;;;;;7.45;4.03;;;;;;;4.97;94.29;101056.72;5024477;28;20049;-84
2022/01/07 10:32:24;;;;;;;11.63;4.60;;;;;;;4.96;94.23;101048.06;5025319;28;20062;-84
2022/01/07 10:35:10;;;;;;;10.48;4.57;;;;;;;4.98;94.32;101050.63;5020840;28;20040;-84
2022/01/07 10:37:40;;;;;;;8.30;4.15;;;;;;;4.99;94.32;101054.97;5011077;28;20041;-84
2022/01/07 10:40:39;;;;;;;11.80;4.07;;;;;;;4.99;94.30;101058.41;5008613;28;20064;-85
2022/01/07 10:43:13;;;;;;;9.60;4.00;;;;;;;5.00;94.21;101059.25;4986211;28;20048;-85
2022/01/07 10:45:40;;;;;;;4.75;3.30;;;;;;;5.00;94.24;101051.47;5037051;28;20071;-85
2022/01/07 10:48:08;;;;;;;9.50;3.55;;;;;;;5.01;93.91;101053.19;5008548;28;20404;-85
2022/01/07 10:50:46;;;;;;;19.80;3.07;;;;;;;5.01;93.88;101050.59;5008792;28;20097;-85
2022/01/07 10:53:28;;;;;;;10.30;3.40;;;;;;;5.03;93.67;101043.63;5003294;28;20044;-85
2022/01/07 10:56:04;;;;;;;9.98;2.72;;;;;;;5.06;93.62;101048.78;5018179;28;20387;-85
2022/01/07 10:58:30;;;;;;;6.25;2.60;;;;;;;5.09;93.55;101040.94;5023695;28;20048;-84
2022/01/07 11:00:55;;;;;;;9.32;2.47;;;;;;;5.11;93.27;101043.53;5003457;28;20053;-85
2022/01/07 11:03:21;;;;;;;10.05;2.30;;;;;;;5.16;93.17;101028.75;5032951;28;20256;-84
2022/01/07 11:05:46;;;;;;;7.72;2.33;;;;;;;5.18;92.67;101032.16;5021748;28;20096;-85
2022/01/07 11:08:15;;;;;;;6.25;2.13;;;;;;;5.21;92.81;101031.28;5003571;28;20033;-84
2022/01/07 11:10:49;;;;;;;5.53;2.45;;;;;;;5.24;92.56;101039.88;5005964;28;20045;-85
2022/01/07 11:13:14;;;;;;;7.53;2.25;;;;;;;5.27;92.40;101032.03;5002047;28;20037;-85
2022/01/07 11:15:40;;;;;;;13.18;2.17;;;;;;;5.29;91.46;101048.44;5002931;28;20039;-85
2022/01/07 11:18:05;;;;;;;9.95;2.00;;;;;;;5.30;89.65;101049.31;5011804;28;20086;-84
2022/01/07 11:20:31;;;;;;;17.75;2.53;;;;;;;5.33;88.24;101064.81;5022176;28;20044;-84
2022/01/07 11:22:56;;;;;;;9.77;1.80;;;;;;;5.33;86.64;101057.03;5032236;28;20043;-85
2022/01/07 11:25:30;;;;;;;12.10;2.10;;;;;;;5.32;84.76;101066.56;5044021;28;20045;-84
2022/01/07 11:27:57;;;;;;;10.88;1.90;;;;;;;5.32;82.62;101060.53;5035222;28;20029;-84
2022/01/07 11:30:26;;;;;;;3.08;0.90;;;;;;;5.31;80.23;101061.41;5018407;28;20079;-84
2022/01/07 11:32:51;;;;;;;4.57;0.85;;;;;;;5.29;79.11;101061.41;5021956;28;20041;-84
2022/01/07 11:35:17;;;;;;;4.15;1.00;;;;;;;5.27;78.66;101065.78;5040181;28;20037;-84
2022/01/07 11:37:49;;;;;;;11.32;1.30;;;;;;;5.24;78.72;101057.19;5019988;28;20069;-84